createdAt,value
2022-08-20T00:02:14.450Z,19.38
2022-08-20T00:04:41.762Z,18.80
2022-08-20T00:07:09.024Z,20.02
2022-08-20T00:09:36.982Z,18.70
2022-08-20T00:12:07.531Z,19.02
2022-08-20T00:14:37.143Z,19.60
2022-08-20T00:17:05.951Z,19.98
2022-08-20T00:19:34.233Z,19.77
2022-08-20T00:22:01.466Z,18.40
2022-08-20T00:24:28.721Z,18.80
2022-08-20T00:26:56.130Z,19.75
2022-08-20T00:29:23.356Z,20.05
2022-08-20T00:31:51.102Z,18.88
2022-08-20T00:34:18.931Z,18.58
2022-08-20T00:36:46.943Z,17.95
2022-08-20T00:39:14.623Z,17.67
2022-08-20T00:41:41.967Z,16.58
2022-08-20T00:44:18.539Z,17.23
2022-08-20T00:46:47.087Z,17.20
2022-08-20T00:49:27.933Z,16.65
2022-08-20T00:52:16.559Z,15.80
2022-08-20T00:55:01.336Z,14.50
2022-08-20T00:58:48.120Z,14.60
2022-08-20T01:01:15.875Z,15.52
2022-08-20T01:03:43.720Z,15.48
2022-08-20T01:07:33.528Z,15.80
2022-08-20T01:10:19.525Z,15.60
2022-08-20T01:14:12.963Z,15.57
2022-08-20T01:16:40.699Z,15.20
2022-08-20T01:20:23.899Z,13.25
2022-08-20T01:24:06.666Z,15.15
2022-08-20T01:27:55.195Z,16.23
2022-08-20T01:31:38.510Z,14.57
2022-08-20T01:34:11.724Z,14.07
2022-08-20T01:37:54.524Z,13.40
2022-08-20T01:40:48.766Z,11.40
2022-08-20T01:44:31.556Z,10.43
2022-08-20T01:47:31.367Z,10.43
2022-08-20T01:50:18.482Z,9.05
2022-08-20T01:54:01.349Z,9.43
2022-08-20T01:56:32.180Z,10.25
2022-08-20T01:59:06.857Z,10.02
2022-08-20T02:01:46.283Z,9.50
2022-08-20T02:04:18.209Z,9.60
2022-08-20T02:06:57.064Z,9.48
2022-08-20T02:09:30.692Z,8.65
2022-08-20T02:12:00.991Z,8.27
2022-08-20T02:14:30.360Z,7.93
2022-08-20T02:16:58.857Z,8.13
2022-08-20T02:19:47.425Z,8.40
2022-08-20T02:22:53.027Z,7.57
2022-08-20T02:25:27.175Z,5.93
2022-08-20T02:28:07.826Z,5.80
2022-08-20T02:30:46.853Z,6.00
2022-08-20T02:33:17.992Z,6.57
2022-08-20T02:35:49.816Z,6.43
2022-08-20T02:38:17.539Z,6.40
2022-08-20T02:40:51.866Z,7.20
2022-08-20T02:43:20.134Z,7.80
2022-08-20T02:45:47.813Z,8.10
2022-08-20T02:48:21.297Z,7.15
2022-08-20T02:51:01.718Z,7.05
2022-08-20T02:53:33.850Z,9.75
2022-08-20T02:56:01.955Z,9.15
2022-08-20T02:58:29.239Z,10.07
2022-08-20T03:00:56.825Z,8.98
2022-08-20T03:03:24.871Z,8.30
2022-08-20T03:05:57.631Z,6.95
2022-08-20T03:08:27.172Z,7.03
2022-08-20T03:10:55.501Z,6.43
2022-08-20T03:13:24.204Z,7.25
2022-08-20T03:16:00.357Z,7.13
2022-08-20T03:18:37.481Z,6.90
2022-08-20T03:21:08.013Z,6.35
2022-08-20T03:23:40.400Z,6.65
2022-08-20T03:26:12.892Z,7.00
2022-08-20T03:28:41.710Z,7.38
2022-08-20T03:31:10.141Z,7.18
2022-08-20T03:33:52.692Z,5.25
2022-08-20T03:36:28.245Z,5.05
2022-08-20T03:39:01.457Z,4.82
2022-08-20T03:41:29.160Z,4.95
2022-08-20T03:43:56.549Z,6.00
2022-08-20T03:46:25.153Z,5.40
2022-08-20T03:48:59.981Z,6.70
2022-08-20T03:51:35.147Z,6.85
2022-08-20T03:54:20.289Z,5.90
2022-08-20T03:56:47.741Z,6.30
2022-08-20T03:59:15.407Z,6.13
2022-08-20T04:01:46.143Z,6.13
2022-08-20T04:04:15.169Z,6.30
2022-08-20T04:06:43.458Z,6.88
2022-08-20T04:09:12.338Z,7.60
2022-08-20T04:11:41.536Z,6.82
2022-08-20T04:14:11.408Z,7.60
2022-08-20T04:16:45.527Z,7.18
2022-08-20T04:19:15.158Z,6.93
2022-08-20T04:21:42.465Z,7.00
2022-08-20T04:24:22.154Z,6.72
2022-08-20T04:26:58.912Z,6.45
2022-08-20T04:29:32.174Z,6.78
2022-08-20T04:32:03.393Z,6.05
2022-08-20T04:34:35.072Z,6.43
2022-08-20T04:37:02.695Z,5.78
2022-08-20T04:39:29.958Z,5.70
2022-08-20T04:41:57.378Z,6.07
2022-08-20T04:44:24.681Z,5.13
2022-08-20T04:46:51.975Z,5.15
2022-08-20T04:49:26.209Z,5.22
2022-08-20T04:51:54.768Z,5.05
2022-08-20T04:54:22.201Z,5.07
2022-08-20T04:56:49.556Z,5.40
2022-08-20T04:59:16.801Z,4.88
2022-08-20T05:01:44.031Z,4.50
2022-08-20T05:04:11.280Z,4.78
2022-08-20T05:06:40.623Z,4.82
2022-08-20T05:09:07.927Z,4.40
2022-08-20T05:11:36.952Z,5.07
2022-08-20T05:14:09.853Z,5.10
2022-08-20T05:16:41.075Z,4.72
2022-08-20T05:19:12.592Z,4.82
2022-08-20T05:21:40.998Z,5.18
2022-08-20T05:24:10.143Z,4.78
2022-08-20T05:26:37.471Z,5.63
2022-08-20T05:29:06.840Z,5.60
2022-08-20T05:31:35.543Z,5.68
2022-08-20T05:34:11.720Z,6.43
2022-08-20T05:36:49.211Z,6.60
2022-08-20T05:39:20.375Z,6.80
2022-08-20T05:41:51.248Z,6.18
2022-08-20T05:44:19.762Z,6.07
2022-08-20T05:46:48.575Z,5.97
2022-08-20T05:49:21.764Z,6.00
2022-08-20T05:51:51.323Z,6.25
2022-08-20T05:54:18.816Z,6.00
2022-08-20T05:56:46.103Z,6.25
2022-08-20T05:59:14.106Z,5.95
2022-08-20T06:01:43.064Z,5.82
2022-08-20T06:04:28.631Z,5.68
2022-08-20T06:07:06.840Z,5.85
2022-08-20T06:09:36.213Z,5.90
2022-08-20T06:12:07.728Z,5.95
2022-08-20T06:14:35.939Z,6.28
2022-08-20T06:17:10.520Z,6.70
2022-08-20T06:19:44.177Z,5.70
2022-08-20T06:22:18.416Z,6.75
2022-08-20T06:24:50.196Z,6.10
2022-08-20T06:27:18.377Z,6.63
2022-08-20T06:29:46.099Z,6.65
2022-08-20T06:32:14.380Z,6.75
2022-08-20T06:34:49.043Z,5.95
2022-08-20T06:37:31.552Z,5.80
2022-08-20T06:40:18.337Z,6.28
2022-08-20T06:42:48.739Z,6.32
2022-08-20T06:45:25.801Z,6.10
2022-08-20T06:47:58.526Z,5.93
2022-08-20T06:50:43.218Z,5.82
2022-08-20T06:53:20.828Z,5.30
2022-08-20T06:55:54.494Z,5.18
2022-08-20T06:58:36.955Z,4.50
2022-08-20T07:01:11.197Z,3.97
2022-08-20T07:03:54.402Z,4.45
2022-08-20T07:06:27.515Z,3.85
2022-08-20T07:08:56.050Z,3.88
2022-08-20T07:11:27.829Z,4.00
2022-08-20T07:13:58.693Z,3.60
2022-08-20T07:16:27.187Z,3.50
2022-08-20T07:18:54.789Z,3.80
2022-08-20T07:21:22.039Z,3.22
2022-08-20T07:23:49.409Z,3.78
2022-08-20T07:26:18.042Z,3.63
2022-08-20T07:28:45.912Z,3.22
2022-08-20T07:31:32.172Z,2.78
2022-08-20T07:34:03.499Z,3.08
2022-08-20T07:36:31.503Z,3.00
2022-08-20T07:38:59.248Z,3.00
2022-08-20T07:41:34.037Z,3.70
2022-08-20T07:44:02.354Z,3.60
2022-08-20T07:46:31.605Z,3.72
2022-08-20T07:48:59.525Z,3.35
2022-08-20T07:51:27.571Z,3.50
2022-08-20T07:53:54.821Z,3.70
2022-08-20T07:56:24.442Z,3.20
2022-08-20T07:58:59.886Z,4.07
2022-08-20T08:01:32.111Z,3.80
2022-08-20T08:04:00.842Z,3.78
2022-08-20T08:06:31.484Z,3.63
2022-08-20T08:09:08.613Z,3.42
2022-08-20T08:11:44.965Z,3.63
2022-08-20T08:14:23.323Z,3.20
2022-08-20T08:16:54.616Z,3.13
2022-08-20T08:19:22.320Z,2.88
2022-08-20T08:21:49.875Z,3.40
2022-08-20T08:24:24.293Z,3.00
2022-08-20T08:26:53.768Z,3.30
2022-08-20T08:29:21.038Z,3.25
2022-08-20T08:31:48.464Z,3.20
2022-08-20T08:34:15.770Z,3.30
2022-08-20T08:43:31.684Z,3.17
2022-08-20T08:46:09.403Z,2.78
2022-08-20T08:48:43.753Z,3.30
2022-08-20T08:51:16.768Z,3.70
2022-08-20T08:53:54.689Z,3.20
2022-08-20T08:56:29.989Z,3.20
2022-08-20T08:59:07.673Z,3.47
2022-08-20T09:01:54.369Z,3.10
2022-08-20T09:04:37.107Z,2.75
2022-08-20T09:07:10.963Z,2.80
2022-08-20T09:09:44.142Z,2.55
2022-08-20T09:12:22.763Z,2.55
2022-08-20T09:14:51.777Z,2.38
2022-08-20T09:17:22.666Z,2.13
2022-08-20T09:19:52.220Z,2.45
2022-08-20T09:22:25.918Z,2.20
2022-08-20T09:24:53.854Z,2.22
2022-08-20T09:27:21.150Z,3.20
2022-08-20T09:29:48.623Z,3.20
2022-08-20T09:32:24.681Z,3.95
2022-08-20T09:34:56.496Z,4.05
2022-08-20T09:37:29.853Z,3.72
2022-08-20T09:39:59.698Z,4.10
2022-08-20T09:42:32.223Z,3.47
2022-08-20T09:45:00.747Z,3.40
2022-08-20T09:47:28.245Z,4.63
2022-08-20T09:49:55.621Z,4.70
2022-08-20T09:52:40.859Z,4.10
2022-08-20T09:55:34.399Z,4.60
2022-08-20T09:58:29.880Z,5.50
2022-08-20T10:00:57.345Z,6.47
2022-08-20T10:03:24.621Z,5.13
2022-08-20T10:05:51.866Z,6.00
2022-08-20T10:08:19.531Z,5.78
2022-08-20T10:10:47.031Z,5.20
2022-08-20T10:13:16.268Z,7.57
2022-08-20T10:15:44.078Z,8.32
2022-08-20T10:18:12.543Z,7.43
2022-08-20T10:20:40.816Z,7.70
2022-08-20T10:23:08.797Z,7.88
2022-08-20T10:25:36.024Z,6.50
2022-08-20T10:28:05.233Z,6.85
2022-08-20T10:30:32.928Z,6.00
2022-08-20T10:33:00.338Z,5.45
2022-08-20T10:35:28.356Z,4.72
2022-08-20T10:37:56.161Z,5.00
2022-08-20T10:40:23.711Z,4.45
2022-08-20T10:42:51.686Z,4.65
2022-08-20T10:45:25.822Z,4.65
2022-08-20T10:48:21.512Z,2.63
2022-08-20T10:50:50.684Z,2.67
2022-08-20T10:53:19.250Z,2.10
2022-08-20T10:55:46.917Z,1.90
2022-08-20T10:58:14.272Z,1.23
2022-08-20T11:00:42.321Z,2.13
2022-08-20T11:03:09.565Z,1.10
2022-08-20T11:05:37.096Z,1.65
2022-08-20T11:08:06.145Z,0.93
2022-08-20T11:10:36.627Z,1.83
2022-08-20T11:13:07.026Z,1.85
2022-08-20T11:15:42.369Z,1.70
2022-08-20T11:18:11.801Z,1.90
2022-08-20T11:20:39.589Z,1.75
2022-08-20T11:23:06.792Z,1.75
2022-08-20T11:25:34.050Z,1.80
2022-08-20T11:28:01.300Z,1.40
2022-08-20T11:30:36.241Z,1.60
2022-08-20T11:33:05.434Z,1.30
2022-08-20T11:35:49.278Z,1.10
2022-08-20T11:38:19.065Z,1.30
2022-08-20T11:40:46.981Z,1.45
2022-08-20T11:43:17.006Z,1.40
2022-08-20T11:45:51.648Z,1.05
2022-08-20T11:48:19.233Z,0.93
2022-08-20T11:50:47.433Z,1.00
2022-08-20T11:53:15.470Z,1.08
2022-08-20T11:55:44.068Z,0.80
2022-08-20T11:58:11.912Z,0.80
2022-08-20T12:00:39.426Z,1.73
2022-08-20T12:03:10.173Z,1.17
2022-08-20T12:05:41.050Z,1.05
2022-08-20T12:08:26.919Z,1.00
2022-08-20T12:11:02.528Z,0.95
2022-08-20T12:13:47.997Z,0.80
2022-08-20T12:16:19.429Z,0.65
2022-08-20T12:18:48.308Z,0.57
2022-08-20T12:21:16.707Z,0.40
2022-08-20T12:23:44.235Z,0.80
2022-08-20T12:26:11.896Z,0.70
2022-08-20T12:28:39.103Z,0.70
2022-08-20T12:31:06.636Z,0.70
2022-08-20T12:33:34.110Z,0.63
2022-08-20T12:36:04.231Z,0.73
2022-08-20T12:38:31.694Z,0.60
2022-08-20T12:40:58.888Z,0.98
2022-08-20T12:43:26.158Z,1.50
2022-08-20T12:45:53.389Z,1.30
2022-08-20T12:48:21.176Z,1.30
2022-08-20T12:50:49.958Z,1.00
2022-08-20T12:53:17.554Z,0.90
2022-08-20T12:55:46.404Z,1.10
2022-08-20T12:58:13.784Z,1.20
2022-08-20T13:00:47.849Z,1.30
2022-08-20T13:03:20.719Z,1.40
2022-08-20T13:05:49.188Z,1.30
2022-08-20T13:08:19.069Z,1.33
2022-08-20T13:10:46.865Z,1.38
2022-08-20T13:13:20.494Z,1.23
2022-08-20T13:15:51.225Z,1.40
2022-08-20T13:18:19.868Z,1.35
2022-08-20T13:20:47.647Z,1.70
2022-08-20T13:23:15.003Z,1.77
2022-08-20T13:25:42.274Z,1.33
2022-08-20T13:28:09.584Z,1.33
2022-08-20T13:30:38.784Z,1.65
2022-08-20T13:33:06.347Z,2.50
2022-08-20T13:35:34.053Z,3.30
2022-08-20T13:38:01.859Z,3.38
2022-08-20T13:40:29.304Z,2.90
2022-08-20T13:42:56.766Z,2.70
2022-08-20T13:45:25.324Z,2.55
2022-08-20T13:47:56.211Z,2.83
2022-08-20T13:50:26.267Z,2.90
2022-08-20T13:52:54.294Z,2.75
2022-08-20T13:55:27.863Z,3.58
2022-08-20T13:57:57.817Z,3.20
2022-08-20T14:00:32.321Z,3.10
2022-08-20T14:03:06.566Z,2.85
2022-08-20T14:05:39.155Z,3.13
2022-08-20T14:08:17.932Z,3.35
2022-08-20T14:10:51.403Z,2.97
2022-08-20T14:13:24.960Z,3.08
2022-08-20T14:15:53.383Z,2.78
2022-08-20T14:18:21.084Z,2.60
2022-08-20T14:20:48.798Z,2.53
2022-08-20T14:23:16.345Z,2.22
2022-08-20T14:25:49.367Z,2.70
2022-08-20T14:28:22.741Z,1.85
2022-08-20T14:30:53.220Z,1.40
2022-08-20T14:33:24.082Z,1.10
2022-08-20T14:35:53.066Z,1.15
2022-08-20T14:38:20.936Z,0.80
2022-08-20T14:40:50.203Z,1.20
2022-08-20T14:43:17.709Z,1.30
2022-08-20T14:45:44.988Z,0.93
2022-08-20T14:48:12.255Z,1.17
2022-08-20T14:50:40.500Z,1.27
2022-08-20T14:53:09.156Z,1.30
2022-08-20T14:55:38.384Z,1.40
2022-08-20T14:58:15.222Z,1.30
2022-08-20T15:00:44.085Z,1.30
2022-08-20T15:03:13.402Z,1.15
2022-08-20T15:05:40.849Z,1.15
2022-08-20T15:08:35.348Z,1.30
2022-08-20T15:11:02.819Z,1.17
2022-08-20T15:13:30.358Z,0.90
2022-08-20T15:15:57.775Z,0.93
2022-08-20T15:18:26.888Z,0.80
2022-08-20T15:20:54.245Z,0.80
2022-08-20T15:23:21.760Z,1.10
2022-08-20T15:25:48.961Z,1.10
2022-08-20T15:28:16.400Z,1.10
2022-08-20T15:30:43.665Z,0.90
2022-08-20T15:33:11.848Z,0.75
2022-08-20T15:35:39.655Z,0.90
2022-08-20T15:38:11.182Z,0.98
2022-08-20T15:40:38.606Z,0.85
2022-08-20T15:43:06.406Z,0.70
2022-08-20T15:45:35.738Z,0.70
2022-08-20T15:48:15.527Z,0.80
2022-08-20T15:51:10.743Z,0.80
2022-08-20T15:53:53.920Z,0.60
2022-08-20T15:57:03.844Z,0.70
2022-08-20T16:00:20.029Z,0.80
2022-08-20T16:03:10.795Z,0.75
2022-08-20T16:06:16.926Z,1.48
2022-08-20T16:09:32.957Z,0.73
2022-08-20T16:12:18.146Z,0.70
2022-08-20T16:14:51.015Z,2.10
2022-08-20T16:17:53.860Z,0.70
2022-08-20T16:20:48.076Z,0.98
2022-08-20T16:24:31.035Z,0.80
2022-08-20T16:28:13.606Z,1.00
2022-08-20T16:30:48.744Z,1.20
2022-08-20T16:34:34.354Z,1.13
2022-08-20T16:37:37.302Z,1.10
2022-08-20T16:41:19.515Z,1.20
2022-08-20T16:44:07.724Z,1.00
2022-08-20T16:47:50.592Z,1.00
2022-08-20T16:50:30.073Z,1.10
2022-08-20T16:54:12.908Z,1.08
2022-08-20T16:57:00.905Z,1.10
2022-08-20T17:00:45.310Z,0.88
2022-08-20T17:03:39.928Z,0.90
2022-08-20T17:07:26.771Z,1.00
2022-08-20T17:10:17.673Z,0.90
2022-08-20T17:14:00.699Z,1.00
2022-08-20T17:16:39.778Z,1.17
2022-08-20T17:19:28.723Z,0.90
2022-08-20T17:22:10.795Z,0.95
2022-08-20T17:24:38.682Z,1.00
2022-08-20T17:27:16.958Z,1.15
2022-08-20T17:29:56.712Z,0.80
2022-08-20T17:32:29.157Z,1.05
2022-08-20T17:35:01.795Z,1.27
2022-08-20T17:37:40.577Z,1.02
2022-08-20T17:40:20.178Z,1.05
2022-08-20T17:42:59.262Z,1.20
2022-08-20T17:45:44.276Z,1.08
2022-08-20T17:48:21.887Z,1.13
2022-08-20T17:50:52.272Z,1.10
2022-08-20T17:53:40.586Z,1.00
2022-08-20T17:56:27.899Z,1.00
2022-08-20T17:59:07.023Z,1.40
2022-08-20T18:01:38.307Z,1.60
2022-08-20T18:04:05.681Z,1.80
2022-08-20T18:06:42.159Z,2.20
2022-08-20T18:09:30.243Z,2.20
2022-08-20T18:12:35.990Z,2.50
2022-08-20T18:15:42.336Z,1.92
2022-08-20T18:18:57.498Z,1.90
2022-08-20T18:22:12.299Z,1.90
2022-08-20T18:25:15.219Z,1.80
2022-08-20T18:27:53.409Z,1.50
2022-08-20T18:30:25.921Z,2.00
2022-08-20T18:33:07.990Z,1.90
2022-08-20T18:35:45.884Z,1.90
2022-08-20T18:38:23.314Z,1.90
2022-08-20T18:40:55.370Z,2.47
2022-08-20T18:43:31.478Z,1.92
2022-08-20T18:46:20.895Z,1.90
2022-08-20T18:49:01.145Z,2.33
2022-08-20T18:51:49.405Z,2.42
2022-08-20T18:54:32.195Z,2.22
2022-08-20T18:57:52.586Z,2.60
2022-08-20T19:00:26.426Z,2.80
2022-08-20T19:03:17.727Z,2.78
2022-08-20T19:05:46.395Z,2.40
2022-08-20T19:08:30.445Z,2.65
2022-08-20T19:11:48.153Z,2.45
2022-08-20T19:14:44.751Z,3.00
2022-08-20T19:17:32.727Z,2.72
2022-08-20T19:20:11.824Z,3.83
2022-08-20T19:22:42.658Z,3.20
2022-08-20T19:25:30.843Z,2.80
2022-08-20T19:28:06.584Z,3.20
2022-08-20T19:30:41.638Z,3.30
2022-08-20T19:33:09.851Z,3.47
2022-08-20T19:35:41.183Z,3.33
2022-08-20T19:38:16.858Z,4.20
2022-08-20T19:40:46.237Z,4.25
2022-08-20T19:43:19.721Z,3.58
2022-08-20T19:45:56.997Z,3.35
2022-08-20T19:49:25.045Z,2.88
2022-08-20T19:52:38.827Z,3.50
2022-08-20T19:56:21.577Z,4.20
2022-08-20T20:00:06.818Z,3.78
2022-08-20T20:03:49.874Z,3.97
2022-08-20T20:07:33.018Z,4.18
2022-08-20T20:11:16.127Z,3.72
2022-08-20T20:14:58.848Z,4.28
2022-08-20T20:18:41.636Z,4.07
2022-08-20T20:22:23.853Z,4.30
2022-08-20T20:26:06.640Z,4.07
2022-08-20T20:29:49.878Z,4.20
2022-08-20T20:33:33.073Z,3.70
2022-08-20T20:37:15.994Z,3.00
2022-08-20T20:41:17.841Z,3.05
2022-08-20T20:45:01.068Z,3.63
2022-08-20T20:48:45.984Z,3.03
2022-08-20T20:51:26.068Z,3.63
2022-08-20T20:55:05.374Z,3.45
2022-08-20T20:57:37.999Z,3.75
2022-08-20T21:00:13.716Z,3.15
2022-08-20T21:02:41.507Z,3.70
2022-08-20T21:05:11.696Z,3.63
2022-08-20T21:08:14.233Z,3.70
2022-08-20T21:10:43.362Z,3.30
2022-08-20T21:13:11.682Z,3.15
2022-08-20T21:15:40.076Z,3.72
2022-08-20T21:18:09.240Z,3.00
2022-08-20T21:20:37.341Z,3.53
2022-08-20T21:23:05.408Z,3.50
2022-08-20T21:25:34.518Z,3.13
2022-08-20T21:28:02.429Z,3.90
2022-08-20T21:30:30.152Z,3.65
2022-08-20T21:32:57.648Z,3.60
2022-08-20T21:35:25.421Z,3.25
2022-08-20T21:37:52.743Z,3.70
2022-08-20T21:40:21.788Z,3.33
2022-08-20T21:42:49.463Z,3.55
2022-08-20T21:45:19.551Z,3.70
2022-08-20T21:47:48.916Z,3.38
2022-08-20T21:50:20.171Z,3.40
2022-08-20T21:52:59.871Z,3.60
2022-08-20T21:55:34.071Z,3.83
2022-08-20T21:58:05.979Z,4.40
2022-08-20T22:01:00.178Z,4.82
2022-08-20T22:03:33.665Z,3.88
2022-08-20T22:06:07.463Z,3.50
2022-08-20T22:08:35.168Z,3.60
2022-08-20T22:11:05.058Z,3.92
2022-08-20T22:13:34.234Z,3.50
2022-08-20T22:16:08.923Z,3.50
2022-08-20T22:18:37.255Z,3.30
2022-08-20T22:21:11.360Z,3.65
2022-08-20T22:23:40.141Z,4.65
2022-08-20T22:26:09.258Z,3.03
2022-08-20T22:28:37.425Z,3.30
2022-08-20T22:31:06.211Z,3.85
2022-08-20T22:33:35.162Z,3.25
2022-08-20T22:36:06.951Z,4.72
2022-08-20T22:38:34.380Z,3.67
2022-08-20T22:41:04.176Z,3.72
2022-08-20T22:43:33.643Z,3.80
2022-08-20T22:46:03.834Z,3.92
2022-08-20T22:48:31.285Z,4.10
2022-08-20T22:50:59.045Z,3.92
2022-08-20T22:53:28.075Z,4.35
2022-08-20T22:55:55.829Z,4.25
2022-08-20T22:58:31.211Z,3.80
2022-08-20T23:01:02.202Z,4.03
2022-08-20T23:03:39.518Z,4.22
2022-08-20T23:06:10.342Z,4.53
2022-08-20T23:08:39.816Z,4.68
2022-08-20T23:11:08.058Z,4.50
2022-08-20T23:13:35.485Z,4.13
2022-08-20T23:16:04.690Z,4.85
2022-08-20T23:18:32.679Z,5.57
2022-08-20T23:21:00.767Z,4.80
2022-08-20T23:23:28.332Z,4.90
2022-08-20T23:25:56.187Z,3.92
2022-08-20T23:28:26.578Z,4.65
2022-08-20T23:30:54.130Z,4.90
2022-08-20T23:33:21.669Z,4.28
2022-08-20T23:35:49.719Z,5.00
2022-08-20T23:38:17.616Z,4.55
2022-08-20T23:40:45.006Z,4.80
2022-08-20T23:43:12.229Z,4.43
2022-08-20T23:45:40.370Z,4.35
2022-08-20T23:48:09.470Z,4.32
2022-08-20T23:50:38.132Z,4.85
2022-08-20T23:53:06.193Z,4.25
2022-08-20T23:55:34.666Z,4.25
2022-08-20T23:58:02.383Z,4.57
